PAJN/JNU METAR and TAF weather

Enter ICAO airport designator
Station Type Date Time Source
PAJN METAR 2019/04/25 11:53 UTC NOAA

PAJN 251153Z 07003KT 10SM FEW048 00/M02 A3031 RMK AO2 SLP263 70002 T00001017 10028 21006 58012


Station Type Date Time Source
PAJN Decoded METAR 2019/04/25 11:53 UTC NOAA

JUNEAU INTERNATIONAL AIRPORT, AK, United States (PAJN) 58-21N 134-34W 8M
Apr 25, 2019 - 07:53 AM EDT / 2019.04.25 1153 UTC
Wind: from the ENE (070 degrees) at 3 MPH (3 KT):0
Visibility: 10 mile(s):0
Sky conditions: mostly clear
Temperature: 32.0 F (0.0 C)
Dew Point: 28.9 F (-1.7 C)
Relative Humidity: 88%
Pressure (altimeter): 30.31 in. Hg (1026 hPa)
Pressure tendency: 0.04 inches (1.2 hPa) lower than three hours ago
ob: PAJN 251153Z 07003KT 10SM FEW048 00/M02 A3031 RMK AO2 SLP263 70002 T00001017 10028 21006 58012
cycle: 12

Station Type Date Time Source
PAJN TAF 2019/04/25 12:34 UTC NOAA

TAF PAJN 251132Z 2512/2612 09006KT P6SM FEW030 SCT200
FM251500 09007KT P6SM VCSH SCT030 BKN060 BKN200
FM260000 13013G20KT P6SM -SHRA OVC040
FM260300 11010KT P6SM -RA OVC040

Example: see airport list